createdAt,value
2022-12-26T00:02:01.563Z,100382.81
2022-12-26T00:04:49.840Z,100379.34
2022-12-26T00:07:21.085Z,100375.94
2022-12-26T00:09:49.483Z,100390.13
2022-12-26T00:12:18.088Z,100385.72
2022-12-26T00:14:46.278Z,100373.56
2022-12-26T00:17:14.663Z,100380.41
2022-12-26T00:19:43.496Z,100367.03
2022-12-26T00:22:11.569Z,100371.28
2022-12-26T00:24:39.965Z,100364.16
2022-12-26T00:27:08.440Z,100357.25
2022-12-26T00:29:36.882Z,100362.56
2022-12-26T00:32:05.426Z,100358.25
2022-12-26T00:34:33.745Z,100376.41
2022-12-26T00:37:02.132Z,100364.81
2022-12-26T00:39:30.858Z,100365.09
2022-12-26T00:41:58.984Z,100364.34
2022-12-26T00:44:27.426Z,100353.25
2022-12-26T00:46:55.907Z,100358.38
2022-12-26T00:49:24.401Z,100358.91
2022-12-26T00:51:52.732Z,100358.22
2022-12-26T00:54:21.149Z,100354.00
2022-12-26T00:56:49.592Z,100353.09
2022-12-26T00:59:18.044Z,100351.22
2022-12-26T01:01:46.555Z,100341.47
2022-12-26T01:04:14.879Z,100342.94
2022-12-26T01:06:43.297Z,100342.81
2022-12-26T01:09:13.399Z,100334.19
2022-12-26T01:11:43.229Z,100330.75
2022-12-26T01:14:19.238Z,100324.41
2022-12-26T01:16:47.848Z,100326.84
2022-12-26T01:19:17.918Z,100331.88
2022-12-26T01:21:47.753Z,100325.34
2022-12-26T01:24:17.629Z,100323.69
2022-12-26T01:26:47.932Z,100323.25
2022-12-26T01:29:17.210Z,100333.19
2022-12-26T01:31:47.126Z,100337.38
2022-12-26T01:34:16.985Z,100336.72
2022-12-26T01:36:46.772Z,100330.72
2022-12-26T01:39:16.509Z,100328.13
2022-12-26T01:41:46.997Z,100313.50
2022-12-26T01:45:07.760Z,100318.66
2022-12-26T01:47:58.779Z,100311.09
2022-12-26T01:50:44.734Z,100306.72
2022-12-26T01:53:34.476Z,100321.94
2022-12-26T01:56:26.220Z,100311.66
2022-12-26T01:59:13.433Z,100308.88
2022-12-26T02:01:50.535Z,100314.75
2022-12-26T02:04:58.710Z,100317.38
2022-12-26T02:07:28.975Z,100306.25
2022-12-26T02:09:58.416Z,100307.72
2022-12-26T02:12:38.782Z,100305.59
2022-12-26T02:15:17.147Z,100307.34
2022-12-26T02:17:47.292Z,100309.47
2022-12-26T02:20:31.937Z,100306.41
2022-12-26T02:23:51.152Z,100302.53
2022-12-26T02:26:51.944Z,100296.31
2022-12-26T02:30:11.440Z,100293.91
2022-12-26T02:33:11.389Z,100297.59
2022-12-26T02:36:13.546Z,100295.84
2022-12-26T02:39:44.831Z,100294.06
2022-12-26T02:42:58.264Z,100292.28
2022-12-26T02:46:21.971Z,100289.88
2022-12-26T02:50:39.264Z,100278.78
2022-12-26T02:54:39.566Z,100285.34
2022-12-26T02:57:42.133Z,100299.47
2022-12-26T03:00:41.024Z,100309.03
2022-12-26T03:03:58.030Z,100303.81
2022-12-26T03:06:53.453Z,100306.28
2022-12-26T03:09:54.062Z,100302.91
2022-12-26T03:13:11.065Z,100299.66
2022-12-26T03:16:21.552Z,100307.78
2022-12-26T03:19:03.330Z,100309.88
2022-12-26T03:21:45.723Z,100316.91
2022-12-26T03:24:18.270Z,100303.88
2022-12-26T03:26:55.108Z,100305.03
2022-12-26T03:29:43.688Z,100312.53
2022-12-26T03:32:12.975Z,100307.00
2022-12-26T03:34:45.009Z,100316.81
2022-12-26T03:38:09.128Z,100312.84
2022-12-26T03:41:56.001Z,100291.34
2022-12-26T03:45:19.300Z,100309.41
2022-12-26T03:48:37.223Z,100307.47
2022-12-26T03:52:23.338Z,100300.63
2022-12-26T03:55:48.197Z,100300.47
2022-12-26T03:59:08.749Z,100315.91
2022-12-26T04:02:04.514Z,100320.66
2022-12-26T04:05:01.831Z,100318.03
2022-12-26T04:08:05.242Z,100317.25
2022-12-26T04:11:08.515Z,100328.19
2022-12-26T04:14:37.677Z,100342.69
2022-12-26T04:18:10.334Z,100343.78
2022-12-26T04:21:49.544Z,100328.19
2022-12-26T04:24:53.084Z,100324.28
2022-12-26T04:27:47.584Z,100329.84
2022-12-26T04:30:35.593Z,100339.03
2022-12-26T04:33:47.263Z,100330.25
2022-12-26T04:36:52.778Z,100337.13
2022-12-26T04:39:50.226Z,100341.47
2022-12-26T04:42:43.578Z,100326.38
2022-12-26T04:45:15.833Z,100335.16
2022-12-26T04:48:05.991Z,100335.97
2022-12-26T04:50:34.215Z,100346.03
2022-12-26T04:53:02.755Z,100334.16
2022-12-26T04:55:35.891Z,100341.81
2022-12-26T04:58:05.849Z,100344.88
2022-12-26T05:00:35.615Z,100342.47
2022-12-26T05:03:40.751Z,100344.25
2022-12-26T05:06:28.957Z,100350.75
2022-12-26T05:09:16.123Z,100358.88
2022-12-26T05:11:47.319Z,100345.22
2022-12-26T05:14:16.630Z,100353.53
2022-12-26T05:17:05.247Z,100361.00
2022-12-26T05:19:53.897Z,100369.63
2022-12-26T05:22:53.590Z,100369.47
2022-12-26T05:25:52.349Z,100363.63
2022-12-26T05:28:41.148Z,100366.56
2022-12-26T05:31:18.114Z,100367.69
2022-12-26T05:34:07.435Z,100366.13
2022-12-26T05:36:48.146Z,100367.13
2022-12-26T05:39:18.485Z,100371.19
2022-12-26T05:41:48.838Z,100377.06
2022-12-26T05:44:18.869Z,100373.97
2022-12-26T05:46:49.949Z,100370.72
2022-12-26T05:49:20.062Z,100373.66
2022-12-26T05:51:48.590Z,100379.88
2022-12-26T05:54:17.052Z,100378.53
2022-12-26T05:56:49.233Z,100371.56
2022-12-26T05:59:16.911Z,100366.84
2022-12-26T06:01:45.434Z,100372.38
2022-12-26T06:04:14.884Z,100380.50
2022-12-26T06:06:42.541Z,100379.03
2022-12-26T06:09:10.943Z,100382.63
2022-12-26T06:11:45.150Z,100369.72
2022-12-26T06:14:18.651Z,100377.03
2022-12-26T06:16:48.739Z,100372.84
2022-12-26T06:19:19.223Z,100365.16
2022-12-26T06:21:49.232Z,100377.72
2022-12-26T06:24:19.380Z,100372.19
2022-12-26T06:26:49.851Z,100372.50
2022-12-26T06:29:19.867Z,100375.09
2022-12-26T06:31:49.919Z,100374.13
2022-12-26T06:34:19.985Z,100383.84
2022-12-26T06:36:48.387Z,100401.56
2022-12-26T06:39:16.799Z,100399.28
2022-12-26T06:41:45.283Z,100413.94
2022-12-26T06:44:18.130Z,100411.31
2022-12-26T06:46:48.642Z,100413.38
2022-12-26T06:49:18.750Z,100421.78
2022-12-26T06:51:48.836Z,100417.63
2022-12-26T06:54:18.846Z,100428.75
2022-12-26T06:56:48.924Z,100432.00
2022-12-26T06:59:19.005Z,100437.22
2022-12-26T07:01:49.338Z,100447.91
2022-12-26T07:04:19.616Z,100456.16
2022-12-26T07:06:49.655Z,100453.03
2022-12-26T07:09:20.290Z,100439.31
2022-12-26T07:11:51.468Z,100437.94
2022-12-26T07:14:21.483Z,100447.91
2022-12-26T07:16:51.521Z,100448.88
2022-12-26T07:19:21.892Z,100449.88
2022-12-26T07:21:51.971Z,100447.25
2022-12-26T07:24:23.137Z,100446.81
2022-12-26T07:26:53.257Z,100434.25
2022-12-26T07:29:23.406Z,100441.72
2022-12-26T07:31:53.479Z,100444.84
2022-12-26T07:34:29.423Z,100447.91
2022-12-26T07:37:01.427Z,100449.19
2022-12-26T07:39:29.758Z,100446.94
2022-12-26T07:41:58.272Z,100441.78
2022-12-26T07:44:31.690Z,100437.16
2022-12-26T07:47:02.186Z,100447.75
2022-12-26T07:49:32.632Z,100432.47
2022-12-26T07:52:03.284Z,100451.00
2022-12-26T07:54:33.498Z,100457.53
2022-12-26T07:57:22.359Z,100465.84
2022-12-26T07:59:54.957Z,100472.34
2022-12-26T08:02:25.257Z,100474.94
2022-12-26T08:04:55.440Z,100481.44
2022-12-26T08:07:26.498Z,100484.22
2022-12-26T08:09:56.634Z,100482.31
2022-12-26T08:12:27.166Z,100486.72
2022-12-26T08:14:57.158Z,100482.63
2022-12-26T08:17:27.234Z,100474.81
2022-12-26T08:19:57.255Z,100473.84
2022-12-26T08:22:28.252Z,100469.00
2022-12-26T08:24:58.288Z,100466.03
2022-12-26T08:27:28.362Z,100470.91
2022-12-26T08:29:58.419Z,100469.78
2022-12-26T08:32:28.641Z,100471.25
2022-12-26T08:34:58.619Z,100464.72
2022-12-26T08:37:27.173Z,100459.50
2022-12-26T08:39:55.580Z,100453.66
2022-12-26T08:42:24.332Z,100458.69
2022-12-26T08:44:52.497Z,100469.78
2022-12-26T08:47:22.041Z,100462.97
2022-12-26T08:49:49.269Z,100475.03
2022-12-26T08:52:17.790Z,100472.56
2022-12-26T08:54:46.309Z,100468.31
2022-12-26T08:57:15.665Z,100469.97
2022-12-26T08:59:43.171Z,100468.50
2022-12-26T09:02:14.835Z,100472.75
2022-12-26T09:04:43.039Z,100479.69
2022-12-26T09:07:11.511Z,100489.47
2022-12-26T09:09:40.000Z,100494.38
2022-12-26T09:12:14.508Z,100510.03
2022-12-26T09:14:44.987Z,100504.50
2022-12-26T09:17:15.060Z,100509.06
2022-12-26T09:19:45.167Z,100507.88
2022-12-26T09:22:35.413Z,100517.53
2022-12-26T09:25:06.139Z,100523.22
2022-12-26T09:27:36.318Z,100518.03
2022-12-26T09:30:07.549Z,100508.56
2022-12-26T09:32:36.585Z,100517.69
2022-12-26T09:35:07.182Z,100519.66
2022-12-26T09:37:37.349Z,100524.25
2022-12-26T09:40:27.107Z,100514.94
2022-12-26T09:43:21.434Z,100523.91
2022-12-26T09:46:22.962Z,100519.38
2022-12-26T09:49:12.299Z,100508.28
2022-12-26T09:51:51.030Z,100509.94
2022-12-26T09:54:54.785Z,100512.22
2022-12-26T09:57:46.164Z,100505.38
2022-12-26T10:00:30.076Z,100507.81
2022-12-26T10:03:00.714Z,100513.22
2022-12-26T10:06:30.219Z,100528.69
2022-12-26T10:09:31.312Z,100532.13
2022-12-26T10:12:39.193Z,100534.91
2022-12-26T10:15:42.763Z,100544.69
2022-12-26T10:19:06.610Z,100544.00
2022-12-26T10:22:54.496Z,100546.66
2022-12-26T10:25:48.379Z,100545.66
2022-12-26T10:28:52.028Z,100538.97
2022-12-26T10:32:14.198Z,100542.41
2022-12-26T10:34:49.495Z,100544.50
2022-12-26T10:37:41.019Z,100531.81
2022-12-26T10:40:27.171Z,100545.19
2022-12-26T10:43:46.769Z,100545.00
2022-12-26T10:47:03.808Z,100535.53
2022-12-26T10:49:33.964Z,100527.25
2022-12-26T10:52:04.898Z,100532.44
2022-12-26T10:54:35.073Z,100529.97
2022-12-26T10:57:08.635Z,100537.81
2022-12-26T10:59:48.827Z,100529.16
2022-12-26T11:02:33.179Z,100525.41
2022-12-26T11:05:27.184Z,100547.38
2022-12-26T11:08:47.769Z,100534.69
2022-12-26T11:11:48.227Z,100534.19
2022-12-26T11:14:40.120Z,100541.34
2022-12-26T11:17:47.005Z,100538.25
2022-12-26T11:20:16.934Z,100543.97
2022-12-26T11:22:47.547Z,100541.00
2022-12-26T11:25:35.190Z,100539.50
2022-12-26T11:28:37.801Z,100540.97
2022-12-26T11:31:28.243Z,100527.97
2022-12-26T11:34:01.623Z,100518.47
2022-12-26T11:36:32.817Z,100512.59
2022-12-26T11:39:22.889Z,100516.38
2022-12-26T11:41:54.046Z,100519.97
2022-12-26T11:44:35.980Z,100522.06
2022-12-26T11:47:14.298Z,100533.16
2022-12-26T11:50:03.463Z,100530.22
2022-12-26T11:52:47.399Z,100531.50
2022-12-26T11:55:23.202Z,100532.66
2022-12-26T11:58:10.129Z,100541.44
2022-12-26T12:01:06.869Z,100537.22
2022-12-26T12:03:50.869Z,100549.75
2022-12-26T12:06:56.384Z,100551.09
2022-12-26T12:10:05.252Z,100542.94
2022-12-26T12:13:03.492Z,100538.22
2022-12-26T12:16:01.170Z,100539.34
2022-12-26T12:19:27.038Z,100541.28
2022-12-26T12:22:56.431Z,100522.41
2022-12-26T12:26:10.718Z,100530.06
2022-12-26T12:29:12.580Z,100522.06
2022-12-26T12:32:40.037Z,100521.06
2022-12-26T12:36:11.135Z,100510.63
2022-12-26T12:39:18.985Z,100500.69
2022-12-26T12:42:53.504Z,100497.22
2022-12-26T12:45:30.130Z,100500.84
2022-12-26T12:48:37.267Z,100516.63
2022-12-26T12:51:27.889Z,100509.50
2022-12-26T12:54:27.784Z,100517.19
2022-12-26T12:57:49.284Z,100526.63
2022-12-26T13:00:51.964Z,100523.00
2022-12-26T13:03:47.785Z,100516.00
2022-12-26T13:06:42.881Z,100510.78
2022-12-26T13:09:31.713Z,100518.13
2022-12-26T13:12:11.870Z,100519.44
2022-12-26T13:14:54.145Z,100511.63
2022-12-26T13:17:47.894Z,100518.63
2022-12-26T13:20:50.743Z,100513.88
2022-12-26T13:24:08.018Z,100514.19
2022-12-26T13:26:47.490Z,100513.06
2022-12-26T13:29:45.291Z,100506.22
2022-12-26T13:32:25.167Z,100508.97
2022-12-26T13:35:03.008Z,100507.72
2022-12-26T13:37:32.896Z,100513.72
2022-12-26T13:40:20.272Z,100518.44
2022-12-26T13:43:28.225Z,100522.47
2022-12-26T13:45:58.427Z,100518.53
2022-12-26T13:48:30.423Z,100521.28
2022-12-26T13:51:05.885Z,100514.81
2022-12-26T13:53:41.667Z,100521.63
2022-12-26T13:56:31.797Z,100517.84
2022-12-26T13:59:12.755Z,100528.06
2022-12-26T14:03:07.592Z,100526.75
2022-12-26T14:06:43.030Z,100529.69
2022-12-26T14:09:36.164Z,100534.72
2022-12-26T14:12:53.552Z,100536.81
2022-12-26T14:15:59.765Z,100535.00
2022-12-26T14:19:25.445Z,100538.81
2022-12-26T14:22:45.447Z,100542.22
2022-12-26T14:26:19.949Z,100556.97
2022-12-26T14:29:32.967Z,100547.50
2022-12-26T14:32:45.724Z,100553.03
2022-12-26T14:35:50.850Z,100550.25
2022-12-26T14:38:52.195Z,100548.75
2022-12-26T14:41:41.900Z,100547.03
2022-12-26T14:44:20.735Z,100543.88
2022-12-26T14:46:50.651Z,100546.91
2022-12-26T14:49:40.178Z,100540.69
2022-12-26T14:52:24.628Z,100548.00
2022-12-26T14:54:56.082Z,100544.84
2022-12-26T14:57:48.982Z,100544.63
2022-12-26T15:00:21.220Z,100552.41
2022-12-26T15:03:01.708Z,100553.78
2022-12-26T15:05:41.604Z,100562.69
2022-12-26T15:09:18.901Z,100558.59
2022-12-26T15:12:18.555Z,100557.34
2022-12-26T15:15:43.281Z,100549.78
2022-12-26T15:19:13.967Z,100546.00
2022-12-26T15:22:17.666Z,100557.03
2022-12-26T15:25:27.107Z,100551.63
2022-12-26T15:28:44.363Z,100546.75
2022-12-26T15:31:47.856Z,100540.41
2022-12-26T15:34:53.837Z,100531.31
2022-12-26T15:37:56.932Z,100526.81
2022-12-26T15:40:43.101Z,100526.31
2022-12-26T15:44:01.707Z,100527.25
2022-12-26T15:46:44.121Z,100529.28
2022-12-26T15:49:44.574Z,100531.53
2022-12-26T15:52:52.041Z,100533.50
2022-12-26T15:55:48.246Z,100532.19
2022-12-26T15:59:27.621Z,100534.00
2022-12-26T16:01:58.549Z,100533.50
2022-12-26T16:04:38.580Z,100534.09
2022-12-26T16:07:35.752Z,100524.19
2022-12-26T16:10:25.170Z,100525.63
2022-12-26T16:13:12.424Z,100519.81
2022-12-26T16:15:51.225Z,100530.53
2022-12-26T16:18:27.080Z,100532.75
2022-12-26T16:21:23.757Z,100537.34
2022-12-26T16:23:57.326Z,100541.94
2022-12-26T16:26:44.007Z,100540.81
2022-12-26T16:29:21.317Z,100537.94
2022-12-26T16:31:51.533Z,100534.66
2022-12-26T16:34:36.617Z,100547.53
2022-12-26T16:37:06.893Z,100537.41
2022-12-26T16:39:35.239Z,100543.06
2022-12-26T16:42:31.024Z,100551.38
2022-12-26T16:45:02.384Z,100549.63
2022-12-26T16:47:34.703Z,100543.75
2022-12-26T16:50:06.363Z,100548.47
2022-12-26T16:52:45.940Z,100560.53
2022-12-26T16:55:48.021Z,100562.75
2022-12-26T16:58:38.220Z,100567.84
2022-12-26T17:01:22.402Z,100568.03
2022-12-26T17:04:04.582Z,100577.97
2022-12-26T17:07:05.244Z,100588.22
2022-12-26T17:09:52.237Z,100579.16
2022-12-26T17:12:35.694Z,100586.03
2022-12-26T17:15:08.350Z,100590.66
2022-12-26T17:17:39.632Z,100585.13
2022-12-26T17:20:25.039Z,100599.38
2022-12-26T17:22:57.584Z,100608.47
2022-12-26T17:25:29.642Z,100599.69
2022-12-26T17:28:15.050Z,100606.00
2022-12-26T17:30:49.635Z,100602.28
2022-12-26T17:33:26.792Z,100606.34
2022-12-26T17:38:57.992Z,100611.41
2022-12-26T17:41:25.964Z,100615.09
2022-12-26T17:43:54.377Z,100608.09
2022-12-26T17:46:21.422Z,100605.47
2022-12-26T17:48:48.598Z,100597.59
2022-12-26T17:51:19.275Z,100608.75
2022-12-26T17:53:52.036Z,100605.19
2022-12-26T17:56:27.257Z,100614.22
2022-12-26T17:58:55.692Z,100619.25
2022-12-26T18:01:23.636Z,100618.63
2022-12-26T18:03:52.946Z,100631.50
2022-12-26T18:06:22.016Z,100638.16
2022-12-26T18:08:51.923Z,100635.09
2022-12-26T18:11:20.187Z,100640.00
2022-12-26T18:13:48.649Z,100650.75
2022-12-26T18:16:25.007Z,100658.75
2022-12-26T18:18:52.388Z,100658.31
2022-12-26T18:21:22.364Z,100655.47
2022-12-26T18:23:52.618Z,100653.63
2022-12-26T18:26:29.360Z,100653.00
2022-12-26T18:28:59.467Z,100654.00
2022-12-26T18:31:31.203Z,100650.72
2022-12-26T18:33:59.571Z,100641.75
2022-12-26T18:36:36.014Z,100652.50
2022-12-26T18:39:06.202Z,100646.94
2022-12-26T18:41:36.214Z,100664.44
2022-12-26T18:44:05.687Z,100664.63
2022-12-26T18:46:35.842Z,100670.13
2022-12-26T18:49:03.015Z,100662.06
2022-12-26T18:51:33.123Z,100670.22
2022-12-26T18:54:03.162Z,100677.34
2022-12-26T18:56:33.237Z,100687.19
2022-12-26T18:59:03.352Z,100689.84
2022-12-26T19:01:33.147Z,100698.28
2022-12-26T19:04:03.283Z,100688.63
2022-12-26T19:06:35.341Z,100698.09
2022-12-26T19:09:04.757Z,100699.81
2022-12-26T19:11:34.865Z,100719.66
2022-12-26T19:14:08.576Z,100720.03
2022-12-26T19:16:38.863Z,100722.78
2022-12-26T19:19:09.418Z,100733.34
2022-12-26T19:21:39.230Z,100733.63
2022-12-26T19:24:12.392Z,100747.38
2022-12-26T19:26:40.787Z,100751.41
2022-12-26T19:29:11.901Z,100742.09
2022-12-26T19:31:41.980Z,100760.19
2022-12-26T19:34:12.050Z,100755.19
2022-12-26T19:36:42.089Z,100759.06
2022-12-26T19:39:12.067Z,100760.25
2022-12-26T19:41:42.129Z,100755.13
2022-12-26T19:44:12.431Z,100771.91
2022-12-26T19:46:42.472Z,100773.94
2022-12-26T19:49:12.517Z,100780.09
2022-12-26T19:51:42.405Z,100773.41
2022-12-26T19:54:12.414Z,100776.72
2022-12-26T19:56:42.424Z,100789.53
2022-12-26T19:59:12.473Z,100801.44
2022-12-26T20:01:42.807Z,100808.34
2022-12-26T20:04:12.728Z,100807.22
2022-12-26T20:06:42.879Z,100811.00
2022-12-26T20:09:16.208Z,100821.91
2022-12-26T20:11:54.146Z,100837.66
2022-12-26T20:14:26.834Z,100837.72
2022-12-26T20:17:06.081Z,100835.88
2022-12-26T20:19:38.020Z,100843.66
2022-12-26T20:22:08.266Z,100842.34
2022-12-26T20:24:38.333Z,100849.81
2022-12-26T20:27:08.553Z,100842.06
2022-12-26T20:29:38.692Z,100861.44
2022-12-26T20:32:07.047Z,100855.91
2022-12-26T20:34:35.679Z,100844.63
2022-12-26T20:37:03.989Z,100853.16
2022-12-26T20:39:32.327Z,100856.19
2022-12-26T20:42:00.661Z,100851.81
2022-12-26T20:44:29.163Z,100862.88
2022-12-26T20:46:57.514Z,100874.53
2022-12-26T20:49:25.971Z,100875.03
2022-12-26T20:51:54.288Z,100885.59
2022-12-26T20:54:22.776Z,100882.31
2022-12-26T20:56:51.408Z,100889.81
2022-12-26T20:59:19.840Z,100895.88
2022-12-26T21:01:48.072Z,100888.94
2022-12-26T21:04:23.229Z,100900.78
2022-12-26T21:06:51.339Z,100890.91
2022-12-26T21:09:21.490Z,100900.78
2022-12-26T21:11:51.646Z,100903.63
2022-12-26T21:14:23.747Z,100904.97
2022-12-26T21:16:57.964Z,100903.63
2022-12-26T21:19:30.561Z,100919.28
2022-12-26T21:21:59.919Z,100921.59
2022-12-26T21:24:33.016Z,100936.06
2022-12-26T21:27:00.307Z,100943.81
2022-12-26T21:29:34.963Z,100950.25
2022-12-26T21:32:05.603Z,100953.81
2022-12-26T21:34:34.187Z,100958.50
2022-12-26T21:37:22.095Z,100963.47
2022-12-26T21:39:52.135Z,100971.75
2022-12-26T21:42:22.421Z,100983.88
2022-12-26T21:44:52.404Z,100976.72
2022-12-26T21:47:22.523Z,100978.06
2022-12-26T21:49:50.918Z,100984.97
2022-12-26T21:52:19.265Z,100986.09
2022-12-26T21:55:06.415Z,100989.13
2022-12-26T21:57:36.643Z,100994.91
2022-12-26T22:00:08.085Z,101005.03
2022-12-26T22:02:57.623Z,101012.47
2022-12-26T22:05:30.644Z,101018.50
2022-12-26T22:08:01.906Z,101016.06
2022-12-26T22:10:51.584Z,101013.88
2022-12-26T22:13:23.854Z,101017.16
2022-12-26T22:16:09.111Z,101028.13
2022-12-26T22:18:44.521Z,101031.41
2022-12-26T22:21:21.446Z,101035.56
2022-12-26T22:23:53.777Z,101057.28
2022-12-26T22:26:24.264Z,101055.66
2022-12-26T22:28:56.494Z,101046.28
2022-12-26T22:31:35.333Z,101059.75
2022-12-26T22:34:14.139Z,101068.56
2022-12-26T22:36:44.347Z,101066.88
2022-12-26T22:39:17.477Z,101072.38
2022-12-26T22:41:47.175Z,101077.34
2022-12-26T22:44:16.744Z,101081.47
2022-12-26T22:46:45.267Z,101090.53
2022-12-26T22:49:13.579Z,101092.75
2022-12-26T22:51:42.376Z,101104.81
2022-12-26T22:54:10.487Z,101090.28
2022-12-26T22:56:40.236Z,101109.53
2022-12-26T22:59:27.429Z,101108.41
2022-12-26T23:02:02.798Z,101113.63
2022-12-26T23:04:33.340Z,101118.28
2022-12-26T23:07:03.915Z,101123.78
2022-12-26T23:09:34.353Z,101124.34
2022-12-26T23:12:25.185Z,101119.66
2022-12-26T23:14:55.696Z,101126.81
2022-12-26T23:17:49.988Z,101127.34
2022-12-26T23:20:43.105Z,101125.41
2022-12-26T23:23:13.687Z,101125.41
2022-12-26T23:25:43.795Z,101119.91
2022-12-26T23:28:32.527Z,101123.47
2022-12-26T23:31:06.212Z,101122.94
2022-12-26T23:33:36.298Z,101125.41
2022-12-26T23:36:08.146Z,101124.28
2022-12-26T23:38:37.769Z,101126.75
2022-12-26T23:41:06.163Z,101127.88
2022-12-26T23:43:34.678Z,101125.09
2022-12-26T23:46:10.609Z,101117.44
2022-12-26T23:48:40.715Z,101124.28
2022-12-26T23:51:10.717Z,101119.91
2022-12-26T23:53:40.795Z,101132.00
2022-12-26T23:56:11.149Z,101129.50
2022-12-26T23:58:42.316Z,101130.91
